createdAt,value
2019-03-06T00:00:57.812Z,64.31
2019-03-06T00:03:26.719Z,63.63
2019-03-06T00:05:55.466Z,62.76
2019-03-06T00:08:24.016Z,60.53
2019-03-06T00:10:52.881Z,60.29
2019-03-06T00:13:21.488Z,60.31
2019-03-06T00:15:50.353Z,60.03
2019-03-06T00:18:19.199Z,63.05
2019-03-06T00:20:47.799Z,64.35
2019-03-06T00:23:16.439Z,63.50
2019-03-06T00:25:45.023Z,64.60
2019-03-06T00:28:14.029Z,65.59
2019-03-06T00:30:42.871Z,65.00
2019-03-06T00:33:11.711Z,64.82
2019-03-06T00:35:43.979Z,65.78
2019-03-06T00:38:12.647Z,65.56
2019-03-06T00:40:52.415Z,65.69
2019-03-06T00:43:21.008Z,65.42
2019-03-06T00:45:49.605Z,66.58
2019-03-06T00:48:18.198Z,66.45
2019-03-06T00:50:46.971Z,66.91
2019-03-06T00:53:15.570Z,64.82
2019-03-06T00:55:44.161Z,62.50
2019-03-06T00:58:12.785Z,63.20
2019-03-06T01:00:41.371Z,63.63
2019-03-06T01:03:10.620Z,64.85
2019-03-06T01:05:39.671Z,64.78
2019-03-06T01:08:08.250Z,63.91
2019-03-06T01:10:37.091Z,63.33
2019-03-06T01:13:05.910Z,62.28
2019-03-06T01:15:34.846Z,65.61
2019-03-06T01:18:03.586Z,63.53
2019-03-06T01:20:32.265Z,61.94
2019-03-06T01:23:00.833Z,61.20
2019-03-06T01:25:29.734Z,60.83
2019-03-06T01:27:58.661Z,60.68
2019-03-06T01:30:27.292Z,60.71
2019-03-06T01:33:00.816Z,60.95
2019-03-06T01:36:00.300Z,61.88
2019-03-06T01:38:46.380Z,61.64
2019-03-06T01:41:24.507Z,62.44
2019-03-06T01:43:57.861Z,66.12
2019-03-06T01:46:26.931Z,70.42
2019-03-06T01:48:55.797Z,69.87
2019-03-06T01:51:24.398Z,68.56
2019-03-06T01:53:53.570Z,67.46
2019-03-06T01:56:22.397Z,68.48
2019-03-06T01:58:51.450Z,70.83
2019-03-06T02:01:20.145Z,70.43
2019-03-06T02:03:48.977Z,69.10
2019-03-06T02:06:17.781Z,69.67
2019-03-06T02:08:46.476Z,68.58
2019-03-06T02:11:15.398Z,68.97
2019-03-06T02:13:44.009Z,67.80
2019-03-06T02:16:12.575Z,68.81
2019-03-06T02:18:41.826Z,69.41
2019-03-06T02:21:10.575Z,68.29
2019-03-06T02:23:39.165Z,68.66
2019-03-06T02:26:08.307Z,67.33
2019-03-06T02:28:36.903Z,66.38
2019-03-06T02:31:05.887Z,65.57
2019-03-06T02:33:34.742Z,62.81
2019-03-06T02:36:03.578Z,59.44
2019-03-06T02:38:32.971Z,60.78
2019-03-06T02:41:02.035Z,60.60
2019-03-06T02:43:30.628Z,63.57
2019-03-06T02:45:59.455Z,64.01
2019-03-06T02:48:28.072Z,64.15
2019-03-06T02:50:56.747Z,67.48
2019-03-06T02:53:25.683Z,70.00
2019-03-06T02:55:54.564Z,69.67
2019-03-06T02:58:32.745Z,68.85
2019-03-06T03:01:17.285Z,72.49
2019-03-06T03:04:16.983Z,69.59
2019-03-06T03:07:06.977Z,68.35
2019-03-06T03:09:35.857Z,70.58
2019-03-06T03:12:04.868Z,68.34
2019-03-06T03:14:33.466Z,68.01
2019-03-06T03:17:02.112Z,70.87
2019-03-06T03:19:30.742Z,71.73
2019-03-06T03:21:59.558Z,73.29
2019-03-06T03:24:28.222Z,72.19
2019-03-06T03:26:56.815Z,70.34
2019-03-06T03:29:25.391Z,70.83
2019-03-06T03:31:54.038Z,69.23
2019-03-06T03:34:22.617Z,65.71
2019-03-06T03:36:51.593Z,63.58
2019-03-06T03:39:20.183Z,67.84
2019-03-06T03:41:48.786Z,69.92
2019-03-06T03:44:17.365Z,71.59
2019-03-06T03:46:46.254Z,69.95
2019-03-06T03:49:15.064Z,70.97
2019-03-06T03:51:43.680Z,67.23
2019-03-06T03:54:12.560Z,68.43
2019-03-06T03:56:41.159Z,70.93
2019-03-06T03:59:09.759Z,70.13
2019-03-06T04:01:38.446Z,69.11
2019-03-06T04:04:07.019Z,67.47
2019-03-06T04:06:35.612Z,70.89
2019-03-06T04:09:05.246Z,69.84
2019-03-06T04:11:33.942Z,67.70
2019-03-06T04:14:02.596Z,67.24
2019-03-06T04:16:31.632Z,70.59
2019-03-06T04:19:00.459Z,72.79
2019-03-06T04:21:29.280Z,69.97
2019-03-06T04:23:57.870Z,67.37
2019-03-06T04:26:26.545Z,68.26
2019-03-06T04:28:55.403Z,70.30
2019-03-06T04:31:23.970Z,68.10
2019-03-06T04:33:52.559Z,69.11
2019-03-06T04:36:21.144Z,66.87
2019-03-06T04:38:49.780Z,66.43
2019-03-06T04:41:18.603Z,66.93
2019-03-06T04:43:47.209Z,69.71
2019-03-06T04:46:15.804Z,71.93
2019-03-06T04:48:44.431Z,75.40
2019-03-06T04:51:13.271Z,71.12
2019-03-06T04:53:41.841Z,69.80
2019-03-06T04:56:10.434Z,68.45
2019-03-06T04:58:39.297Z,68.21
2019-03-06T05:01:07.956Z,70.64
2019-03-06T05:03:36.584Z,70.03
2019-03-06T05:06:05.199Z,70.28
2019-03-06T05:08:33.970Z,70.29
2019-03-06T05:11:02.815Z,69.45
2019-03-06T05:13:31.465Z,71.43
2019-03-06T05:16:00.121Z,73.10
2019-03-06T05:18:53.595Z,70.75
2019-03-06T05:21:22.216Z,73.90
2019-03-06T05:23:50.852Z,72.74
2019-03-06T05:26:19.452Z,74.26
2019-03-06T05:28:48.355Z,74.67
2019-03-06T05:31:16.980Z,75.86
2019-03-06T05:33:45.605Z,72.96
2019-03-06T05:36:57.394Z,74.78
2019-03-06T05:39:25.982Z,75.16
2019-03-06T05:41:54.591Z,74.97
2019-03-06T05:44:23.200Z,74.63
2019-03-06T05:46:52.311Z,74.56
2019-03-06T05:49:20.910Z,76.71
2019-03-06T05:51:49.824Z,74.21
2019-03-06T05:54:18.640Z,74.63
2019-03-06T05:56:48.489Z,72.81
2019-03-06T05:59:17.458Z,74.79
2019-03-06T06:01:46.168Z,73.68
2019-03-06T06:04:15.015Z,72.46
2019-03-06T06:06:43.668Z,71.09
2019-03-06T06:09:12.277Z,71.00
2019-03-06T06:11:41.505Z,71.50
2019-03-06T06:14:10.118Z,70.85
2019-03-06T06:16:39.008Z,72.50
2019-03-06T06:19:07.682Z,72.59
2019-03-06T06:21:58.545Z,67.79
2019-03-06T06:24:29.096Z,70.06
2019-03-06T06:26:58.390Z,68.47
2019-03-06T06:29:27.008Z,70.35
2019-03-06T06:31:55.880Z,69.15
2019-03-06T06:34:24.503Z,69.62
2019-03-06T06:36:53.173Z,70.19
2019-03-06T06:39:21.946Z,71.61
2019-03-06T06:41:50.890Z,70.98
2019-03-06T06:44:19.919Z,69.62
2019-03-06T06:46:48.515Z,67.23
2019-03-06T06:49:17.224Z,68.97
2019-03-06T06:51:59.379Z,66.95
2019-03-06T06:54:49.963Z,68.71
2019-03-06T06:57:40.702Z,67.66
2019-03-06T07:01:03.173Z,65.86
2019-03-06T07:04:32.756Z,64.58
2019-03-06T07:07:12.863Z,65.82
2019-03-06T07:09:59.695Z,64.19
2019-03-06T07:12:50.345Z,65.61
2019-03-06T07:15:41.358Z,66.08
2019-03-06T07:18:24.542Z,66.21
2019-03-06T07:21:21.728Z,65.65
2019-03-06T07:24:24.652Z,65.24
2019-03-06T07:27:17.861Z,66.53
2019-03-06T07:30:14.743Z,65.31
2019-03-06T07:33:11.196Z,65.19
2019-03-06T07:36:18.898Z,66.37
2019-03-06T07:38:49.016Z,63.70
2019-03-06T07:41:29.192Z,63.50
2019-03-06T07:44:29.769Z,63.54
2019-03-06T07:47:09.749Z,62.12
2019-03-06T07:49:59.690Z,62.00
2019-03-06T07:52:47.475Z,59.98
2019-03-06T07:55:38.234Z,61.91
2019-03-06T07:58:42.758Z,61.78
2019-03-06T08:01:17.098Z,60.21
2019-03-06T08:04:09.938Z,61.14
2019-03-06T08:06:39.134Z,57.99
2019-03-06T08:09:08.996Z,63.18
2019-03-06T08:11:55.366Z,59.44
2019-03-06T08:14:41.885Z,59.78
2019-03-06T08:17:35.760Z,59.67
2019-03-06T08:20:26.673Z,60.57
2019-03-06T08:23:23.893Z,61.38
2019-03-06T08:25:53.189Z,60.80
2019-03-06T08:28:21.807Z,57.66
2019-03-06T08:31:03.556Z,59.25
2019-03-06T08:33:32.341Z,61.25
2019-03-06T08:36:01.283Z,61.23
2019-03-06T08:38:30.158Z,61.99
2019-03-06T08:41:04.272Z,61.43
2019-03-06T08:43:29.228Z,62.18
2019-03-06T08:46:17.027Z,61.58
2019-03-06T08:49:04.448Z,60.73
2019-03-06T08:51:42.156Z,61.36
2019-03-06T08:54:20.607Z,62.42
2019-03-06T08:57:17.553Z,61.27
2019-03-06T09:00:09.491Z,62.37
2019-03-06T09:02:55.624Z,62.97
2019-03-06T09:05:35.441Z,61.92
2019-03-06T09:08:26.321Z,62.28
2019-03-06T09:11:03.050Z,62.05
2019-03-06T09:13:42.859Z,64.14
2019-03-06T09:16:21.046Z,62.16
2019-03-06T09:19:11.849Z,62.09
2019-03-06T09:21:46.099Z,59.19
2019-03-06T09:24:27.221Z,60.95
2019-03-06T09:27:02.499Z,61.26
2019-03-06T09:29:59.346Z,61.39
2019-03-06T09:32:39.022Z,60.76
2019-03-06T09:35:25.692Z,60.75
2019-03-06T09:38:25.522Z,58.77
2019-03-06T09:41:11.725Z,56.92
2019-03-06T09:43:55.129Z,53.28
2019-03-06T09:46:42.771Z,53.28
2019-03-06T09:49:28.969Z,51.37
2019-03-06T09:52:15.094Z,49.00
2019-03-06T09:54:57.101Z,50.62
2019-03-06T09:57:43.414Z,50.54
2019-03-06T10:00:43.465Z,51.36
2019-03-06T10:03:27.640Z,49.49
2019-03-06T10:06:12.313Z,46.91
2019-03-06T10:09:11.994Z,45.74
2019-03-06T10:11:48.810Z,44.51
2019-03-06T10:14:25.638Z,45.46
2019-03-06T10:17:08.317Z,44.65
2019-03-06T10:19:41.568Z,48.50
2019-03-06T10:22:10.230Z,46.58
2019-03-06T10:24:38.817Z,47.88
2019-03-06T10:27:07.704Z,45.97
2019-03-06T10:29:36.511Z,44.88
2019-03-06T10:32:05.545Z,42.63
2019-03-06T10:34:34.400Z,45.19
2019-03-06T10:37:03.081Z,44.80
2019-03-06T10:39:31.732Z,43.56
2019-03-06T10:42:00.354Z,40.97
2019-03-06T10:44:30.001Z,41.56
2019-03-06T10:46:58.998Z,41.47
2019-03-06T10:49:27.987Z,40.07
2019-03-06T10:51:56.905Z,41.06
2019-03-06T10:54:25.783Z,42.44
2019-03-06T10:56:54.782Z,42.54
2019-03-06T10:59:23.792Z,47.44
2019-03-06T11:01:52.478Z,48.22
2019-03-06T11:04:31.065Z,48.42
2019-03-06T11:06:59.795Z,48.85
2019-03-06T11:09:28.851Z,49.25
2019-03-06T11:11:58.732Z,49.09
2019-03-06T11:14:27.532Z,49.00
2019-03-06T11:16:56.254Z,49.91
2019-03-06T11:19:25.108Z,51.18
2019-03-06T11:21:53.894Z,50.29
2019-03-06T11:24:22.592Z,51.52
2019-03-06T11:26:51.587Z,51.36
2019-03-06T11:29:20.502Z,52.91
2019-03-06T11:31:49.154Z,52.04
2019-03-06T11:34:17.893Z,53.42
2019-03-06T11:36:46.827Z,52.99
2019-03-06T11:39:15.418Z,52.99
2019-03-06T11:41:44.127Z,52.08
2019-03-06T11:44:12.758Z,52.00
2019-03-06T11:46:41.775Z,51.76
2019-03-06T11:49:10.428Z,50.51
2019-03-06T11:51:39.189Z,49.27
2019-03-06T11:54:08.650Z,47.10
2019-03-06T11:56:37.384Z,48.52
2019-03-06T11:59:06.152Z,48.14
2019-03-06T12:01:36.197Z,46.90
2019-03-06T12:04:05.679Z,47.79
2019-03-06T12:06:34.381Z,45.76
2019-03-06T12:09:03.806Z,44.30
2019-03-06T12:11:32.648Z,44.78
2019-03-06T12:14:01.332Z,42.43
2019-03-06T12:16:30.084Z,43.07
2019-03-06T12:18:58.711Z,43.89
2019-03-06T12:21:27.573Z,43.43
2019-03-06T12:24:15.663Z,44.66
2019-03-06T12:26:44.349Z,45.10
2019-03-06T12:29:13.241Z,44.77
2019-03-06T12:31:43.939Z,44.63
2019-03-06T12:34:12.625Z,44.88
2019-03-06T12:36:41.557Z,45.30
2019-03-06T12:39:10.239Z,45.84
2019-03-06T12:41:39.088Z,46.06
2019-03-06T12:44:10.662Z,45.07
2019-03-06T12:46:38.145Z,47.35
2019-03-06T12:49:14.500Z,46.70
2019-03-06T12:51:43.088Z,46.75
2019-03-06T12:54:11.760Z,45.72
2019-03-06T12:56:40.400Z,45.79
2019-03-06T12:59:09.290Z,46.85
2019-03-06T13:01:39.221Z,47.17
2019-03-06T13:04:08.058Z,45.65
2019-03-06T13:06:36.861Z,46.96
2019-03-06T13:09:14.140Z,46.85
2019-03-06T13:11:42.905Z,46.82
2019-03-06T13:14:11.804Z,45.93
2019-03-06T13:16:41.129Z,45.76
2019-03-06T13:19:09.820Z,46.43
2019-03-06T13:21:38.741Z,45.30
2019-03-06T13:24:07.354Z,43.65
2019-03-06T13:26:36.029Z,45.84
2019-03-06T13:29:04.736Z,44.44
2019-03-06T13:31:33.869Z,44.56
2019-03-06T13:34:16.122Z,44.32
2019-03-06T13:36:44.694Z,44.15
2019-03-06T13:39:13.431Z,44.28
2019-03-06T13:41:42.283Z,42.59
2019-03-06T13:44:11.001Z,42.89
2019-03-06T13:46:39.673Z,43.20
2019-03-06T13:49:08.895Z,42.40
2019-03-06T13:51:38.869Z,42.02
2019-03-06T13:54:07.475Z,42.35
2019-03-06T13:56:36.175Z,41.75
2019-03-06T13:59:05.660Z,42.17
2019-03-06T14:01:34.895Z,41.34
2019-03-06T14:04:03.567Z,40.84
2019-03-06T14:06:32.798Z,41.54
2019-03-06T14:09:01.920Z,40.96
2019-03-06T14:11:30.600Z,40.62
2019-03-06T14:13:59.526Z,40.74
2019-03-06T14:16:28.131Z,40.44
2019-03-06T14:18:56.783Z,40.94
2019-03-06T14:21:25.898Z,42.32
2019-03-06T14:23:54.539Z,43.85
2019-03-06T14:26:23.668Z,42.77
2019-03-06T14:28:52.488Z,43.35
2019-03-06T14:31:23.148Z,43.27
2019-03-06T14:33:51.585Z,42.79
2019-03-06T14:36:20.563Z,43.64
2019-03-06T14:38:49.339Z,43.35
2019-03-06T14:41:18.033Z,42.12
2019-03-06T14:43:46.990Z,42.29
2019-03-06T14:46:16.738Z,42.35
2019-03-06T14:48:45.641Z,42.30
2019-03-06T14:51:15.042Z,40.75
2019-03-06T14:53:43.863Z,40.97
2019-03-06T14:56:12.463Z,39.71
2019-03-06T14:58:41.392Z,39.91
2019-03-06T15:01:10.214Z,39.72
2019-03-06T15:03:39.143Z,40.31
2019-03-06T15:06:07.862Z,39.51
2019-03-06T15:08:37.614Z,41.94
2019-03-06T15:11:06.927Z,42.58
2019-03-06T15:13:35.883Z,40.86
2019-03-06T15:16:04.867Z,40.62
2019-03-06T15:18:33.835Z,39.84
2019-03-06T15:21:02.758Z,41.02
2019-03-06T15:23:32.635Z,42.46
2019-03-06T15:26:01.344Z,41.64
2019-03-06T15:28:30.358Z,41.92
2019-03-06T15:30:59.151Z,41.54
2019-03-06T15:33:28.097Z,41.91
2019-03-06T15:35:56.896Z,42.53
2019-03-06T15:38:25.610Z,41.75
2019-03-06T15:40:54.380Z,41.99
2019-03-06T15:43:23.318Z,42.42
2019-03-06T15:45:51.944Z,41.72
2019-03-06T15:48:20.575Z,41.87
2019-03-06T15:50:49.592Z,42.84
2019-03-06T15:53:24.497Z,42.34
2019-03-06T15:55:48.913Z,42.35
2019-03-06T15:58:17.815Z,41.60
2019-03-06T16:00:46.825Z,41.57
2019-03-06T16:03:15.640Z,42.61
2019-03-06T16:05:44.420Z,42.51
2019-03-06T16:08:14.144Z,43.02
2019-03-06T16:10:43.418Z,43.26
2019-03-06T16:13:12.429Z,43.26
2019-03-06T16:15:41.392Z,43.84
2019-03-06T16:18:10.339Z,43.61
2019-03-06T16:20:39.404Z,43.84
2019-03-06T16:23:08.451Z,44.72
2019-03-06T16:25:39.978Z,45.21
2019-03-06T16:28:07.984Z,45.20
2019-03-06T16:30:37.115Z,44.96
2019-03-06T16:33:05.852Z,44.77
2019-03-06T16:35:34.520Z,43.94
2019-03-06T16:38:03.273Z,45.15
2019-03-06T16:40:32.115Z,43.99
2019-03-06T16:43:00.773Z,44.51
2019-03-06T16:45:29.955Z,45.06
2019-03-06T16:47:58.901Z,43.95
2019-03-06T16:50:27.698Z,43.66
2019-03-06T16:52:57.204Z,45.22
2019-03-06T16:55:26.285Z,44.21
2019-03-06T16:57:55.332Z,43.65
2019-03-06T17:00:29.155Z,45.95
2019-03-06T17:02:58.184Z,44.27
2019-03-06T17:05:27.157Z,42.82
2019-03-06T17:07:56.783Z,45.00
2019-03-06T17:10:25.671Z,43.29
2019-03-06T17:12:54.593Z,42.53
2019-03-06T17:15:23.902Z,43.70
2019-03-06T17:20:59.488Z,44.45
2019-03-06T17:23:28.374Z,44.93
2019-03-06T17:25:57.291Z,44.60
2019-03-06T17:28:26.232Z,44.26
2019-03-06T17:30:54.905Z,45.67
2019-03-06T17:33:24.334Z,44.02
2019-03-06T17:35:52.952Z,44.68
2019-03-06T17:38:21.793Z,44.13
2019-03-06T17:40:50.573Z,45.30
2019-03-06T17:43:19.284Z,44.36
2019-03-06T17:45:47.917Z,45.97
2019-03-06T17:48:16.887Z,44.48
2019-03-06T17:50:45.493Z,45.50
2019-03-06T17:53:14.173Z,44.34
2019-03-06T17:55:43.105Z,43.17
2019-03-06T17:58:11.705Z,43.31
2019-03-06T18:00:46.045Z,43.96
2019-03-06T18:03:17.446Z,44.74
2019-03-06T18:05:46.116Z,44.62
2019-03-06T18:08:14.804Z,43.73
2019-03-06T18:10:43.396Z,44.42
2019-03-06T18:13:12.499Z,44.41
2019-03-06T18:15:44.341Z,45.22
2019-03-06T18:18:12.638Z,43.24
2019-03-06T18:20:41.319Z,44.55
2019-03-06T18:23:10.043Z,43.07
2019-03-06T18:25:39.089Z,43.39
2019-03-06T18:28:07.929Z,44.72
2019-03-06T18:30:37.046Z,44.08
2019-03-06T18:33:06.145Z,45.04
2019-03-06T18:35:34.858Z,46.63
2019-03-06T18:38:03.538Z,45.29
2019-03-06T18:40:32.936Z,46.11
2019-03-06T18:43:01.804Z,46.07
2019-03-06T18:45:30.688Z,44.51
2019-03-06T18:47:59.299Z,45.76
2019-03-06T18:50:27.966Z,46.44
2019-03-06T18:52:56.785Z,45.46
2019-03-06T18:55:25.849Z,45.98
2019-03-06T18:57:54.539Z,44.73
2019-03-06T19:00:23.236Z,45.48
2019-03-06T19:02:52.412Z,47.23
2019-03-06T19:05:21.384Z,46.98
2019-03-06T19:07:50.367Z,44.96
2019-03-06T19:10:19.127Z,46.77
2019-03-06T19:12:48.197Z,47.14
2019-03-06T19:15:18.154Z,46.28
2019-03-06T19:17:46.919Z,47.59
2019-03-06T19:20:17.101Z,45.70
2019-03-06T19:22:45.886Z,46.42
2019-03-06T19:25:15.287Z,45.81
2019-03-06T19:27:43.883Z,46.07
2019-03-06T19:30:17.921Z,44.65
2019-03-06T19:32:46.891Z,45.67
2019-03-06T19:35:16.226Z,46.35
2019-03-06T19:37:44.841Z,46.83
2019-03-06T19:40:14.081Z,47.86
2019-03-06T19:42:43.235Z,47.60
2019-03-06T19:45:12.362Z,48.98
2019-03-06T19:47:41.209Z,47.28
2019-03-06T19:50:12.247Z,49.02
2019-03-06T19:52:40.962Z,48.30
2019-03-06T19:55:11.270Z,47.78
2019-03-06T19:57:57.699Z,50.27
2019-03-06T20:00:29.204Z,48.95
2019-03-06T20:02:57.615Z,52.09
2019-03-06T20:05:34.517Z,51.57
2019-03-06T20:08:03.580Z,50.98
2019-03-06T20:10:32.629Z,52.29
2019-03-06T20:13:01.341Z,53.77
2019-03-06T20:15:29.959Z,52.96
2019-03-06T20:17:58.692Z,53.85
2019-03-06T20:20:27.778Z,55.48
2019-03-06T20:22:56.724Z,54.51
2019-03-06T20:25:25.343Z,54.62
2019-03-06T20:27:53.934Z,55.28
2019-03-06T20:30:22.755Z,57.48
2019-03-06T20:32:56.917Z,55.91
2019-03-06T20:35:29.220Z,55.74
2019-03-06T20:37:58.149Z,58.13
2019-03-06T20:40:26.915Z,59.39
2019-03-06T20:42:58.066Z,61.06
2019-03-06T20:45:26.059Z,59.27
2019-03-06T20:47:54.726Z,61.72
2019-03-06T20:50:23.821Z,62.21
2019-03-06T20:52:52.668Z,61.65
2019-03-06T20:55:21.925Z,59.85
2019-03-06T20:57:50.606Z,61.31
2019-03-06T21:00:20.607Z,62.18
2019-03-06T21:02:49.357Z,61.32
2019-03-06T21:05:18.017Z,62.10
2019-03-06T21:07:46.673Z,61.69
2019-03-06T21:10:15.767Z,63.43
2019-03-06T21:12:44.364Z,63.73
2019-03-06T21:15:14.639Z,63.77
2019-03-06T21:17:43.715Z,64.25
2019-03-06T21:20:14.687Z,62.89
2019-03-06T21:22:43.535Z,63.49
2019-03-06T21:25:13.461Z,61.49
2019-03-06T21:27:42.299Z,62.04
2019-03-06T21:30:18.219Z,62.69
2019-03-06T21:32:46.885Z,63.42
2019-03-06T21:35:15.503Z,61.71
2019-03-06T21:37:44.112Z,61.71
2019-03-06T21:40:12.836Z,62.16
2019-03-06T21:42:41.701Z,63.05
2019-03-06T21:45:10.824Z,60.67
2019-03-06T21:47:39.758Z,62.09
2019-03-06T21:50:10.488Z,60.13
2019-03-06T21:52:39.381Z,58.11
2019-03-06T21:55:09.488Z,59.35
2019-03-06T21:57:38.080Z,58.47
2019-03-06T22:00:07.870Z,58.75
2019-03-06T22:02:36.691Z,60.64
2019-03-06T22:05:05.697Z,60.17
2019-03-06T22:07:34.278Z,59.17
2019-03-06T22:10:02.909Z,58.28
2019-03-06T22:12:31.538Z,57.29
2019-03-06T22:15:00.344Z,55.72
2019-03-06T22:17:28.920Z,55.44
2019-03-06T22:19:58.053Z,53.77
2019-03-06T22:22:26.630Z,54.67
2019-03-06T22:24:55.406Z,56.21
2019-03-06T22:27:24.228Z,57.13
2019-03-06T22:29:53.251Z,55.11
2019-03-06T22:32:21.876Z,56.98
2019-03-06T22:34:52.078Z,54.56
2019-03-06T22:37:20.770Z,56.94
2019-03-06T22:39:49.431Z,57.27
2019-03-06T22:42:18.039Z,56.24
2019-03-06T22:44:46.689Z,54.70
2019-03-06T22:47:15.286Z,53.40
2019-03-06T22:49:44.044Z,54.06
2019-03-06T22:52:12.634Z,57.20
2019-03-06T22:54:41.314Z,56.61
2019-03-06T22:57:09.917Z,55.24
2019-03-06T22:59:38.538Z,56.13
2019-03-06T23:02:07.280Z,57.17
2019-03-06T23:04:35.910Z,55.59
2019-03-06T23:07:05.001Z,54.79
2019-03-06T23:09:33.855Z,53.19
2019-03-06T23:12:02.448Z,56.31
2019-03-06T23:14:31.611Z,52.58
2019-03-06T23:17:00.214Z,53.00
2019-03-06T23:19:29.065Z,52.51
2019-03-06T23:21:59.687Z,52.99
2019-03-06T23:24:28.043Z,55.02
2019-03-06T23:26:56.646Z,56.49
2019-03-06T23:29:25.893Z,53.76
2019-03-06T23:31:54.474Z,54.85
2019-03-06T23:34:23.635Z,55.37
2019-03-06T23:36:52.468Z,56.21
2019-03-06T23:39:21.059Z,55.62
2019-03-06T23:41:49.905Z,55.37
2019-03-06T23:44:18.524Z,56.96
2019-03-06T23:46:47.123Z,56.58
2019-03-06T23:49:15.742Z,57.32
2019-03-06T23:51:50.270Z,58.69
2019-03-06T23:54:19.494Z,57.85
2019-03-06T23:56:48.244Z,58.83
2019-03-06T23:59:16.839Z,59.90
